sensor_id;sensor_type;location;lat;lon;timestamp;pressure;altitude;pressure_sealevel;temperature;humidity
23574;BME280;11965;53.640;10.050;2022-08-19T00:00:30;101054.72;;;21.45;85.55
23574;BME280;11965;53.640;10.050;2022-08-19T00:02:56;101051.63;;;21.46;85.74
23574;BME280;11965;53.640;10.050;2022-08-19T00:05:22;101036.72;;;21.51;85.40
23574;BME280;11965;53.640;10.050;2022-08-19T00:07:49;101031.63;;;21.48;84.97
23574;BME280;11965;53.640;10.050;2022-08-19T00:10:16;101031.88;;;21.46;85.93
23574;BME280;11965;53.640;10.050;2022-08-19T00:12:42;101021.13;;;21.43;85.37
23574;BME280;11965;53.640;10.050;2022-08-19T00:15:10;101018.31;;;21.43;85.98
23574;BME280;11965;53.640;10.050;2022-08-19T00:17:39;101004.19;;;21.43;86.64
23574;BME280;11965;53.640;10.050;2022-08-19T00:20:05;100999.84;;;21.35;85.71
23574;BME280;11965;53.640;10.050;2022-08-19T00:22:31;101003.66;;;21.46;85.10
23574;BME280;11965;53.640;10.050;2022-08-19T00:24:57;101017.44;;;21.43;85.46
23574;BME280;11965;53.640;10.050;2022-08-19T00:27:23;101017.44;;;21.43;86.18
23574;BME280;11965;53.640;10.050;2022-08-19T00:29:48;101012.00;;;21.36;86.11
23574;BME280;11965;53.640;10.050;2022-08-19T00:32:14;101017.38;;;21.37;85.20
23574;BME280;11965;53.640;10.050;2022-08-19T00:34:40;101016.13;;;21.28;86.47
23574;BME280;11965;53.640;10.050;2022-08-19T00:37:05;101010.63;;;21.38;86.61
23574;BME280;11965;53.640;10.050;2022-08-19T00:39:31;101003.97;;;21.28;86.81
23574;BME280;11965;53.640;10.050;2022-08-19T00:41:56;101012.38;;;21.23;86.57
23574;BME280;11965;53.640;10.050;2022-08-19T00:44:26;101008.19;;;21.25;87.09
23574;BME280;11965;53.640;10.050;2022-08-19T00:46:54;101010.56;;;21.33;85.89
23574;BME280;11965;53.640;10.050;2022-08-19T00:49:26;101007.91;;;21.27;86.50
23574;BME280;11965;53.640;10.050;2022-08-19T00:51:53;101001.38;;;21.21;88.36
23574;BME280;11965;53.640;10.050;2022-08-19T00:54:21;100999.53;;;21.32;87.04
23574;BME280;11965;53.640;10.050;2022-08-19T00:56:47;100992.84;;;21.38;87.58
23574;BME280;11965;53.640;10.050;2022-08-19T00:59:15;101003.53;;;21.36;87.20
23574;BME280;11965;53.640;10.050;2022-08-19T01:01:42;101000.66;;;21.31;87.11
23574;BME280;11965;53.640;10.050;2022-08-19T01:04:08;100997.84;;;21.31;87.43
23574;BME280;11965;53.640;10.050;2022-08-19T01:06:36;100991.31;;;21.30;86.96
23574;BME280;11965;53.640;10.050;2022-08-19T01:09:03;101000.38;;;21.32;87.83
23574;BME280;11965;53.640;10.050;2022-08-19T01:11:31;100990.41;;;21.25;86.89
23574;BME280;11965;53.640;10.050;2022-08-19T01:13:58;100997.75;;;21.26;87.96
23574;BME280;11965;53.640;10.050;2022-08-19T01:16:25;100992.69;;;21.28;87.20
23574;BME280;11965;53.640;10.050;2022-08-19T01:18:52;100988.13;;;21.22;87.96
23574;BME280;11965;53.640;10.050;2022-08-19T01:21:25;100986.56;;;21.31;87.88
23574;BME280;11965;53.640;10.050;2022-08-19T01:23:51;100995.41;;;21.17;87.64
23574;BME280;11965;53.640;10.050;2022-08-19T01:26:20;100989.78;;;21.17;88.23
23574;BME280;11965;53.640;10.050;2022-08-19T01:28:48;100984.78;;;21.25;87.82
23574;BME280;11965;53.640;10.050;2022-08-19T01:31:17;100987.41;;;21.31;88.17
23574;BME280;11965;53.640;10.050;2022-08-19T01:33:44;100983.47;;;21.32;87.61
23574;BME280;11965;53.640;10.050;2022-08-19T01:36:15;100988.00;;;21.33;87.16
23574;BME280;11965;53.640;10.050;2022-08-19T01:38:43;100984.06;;;21.34;87.94
23574;BME280;11965;53.640;10.050;2022-08-19T01:41:10;100976.72;;;21.33;88.36
23574;BME280;11965;53.640;10.050;2022-08-19T01:43:36;100978.16;;;21.36;87.73
23574;BME280;11965;53.640;10.050;2022-08-19T01:46:02;100974.41;;;21.30;87.53
23574;BME280;11965;53.640;10.050;2022-08-19T01:48:33;100966.22;;;21.29;87.51
23574;BME280;11965;53.640;10.050;2022-08-19T01:50:59;100969.81;;;21.24;87.54
23574;BME280;11965;53.640;10.050;2022-08-19T01:53:24;100957.03;;;21.16;88.36
23574;BME280;11965;53.640;10.050;2022-08-19T01:55:49;100962.69;;;21.16;88.55
23574;BME280;11965;53.640;10.050;2022-08-19T01:58:19;100963.03;;;21.20;88.81
23574;BME280;11965;53.640;10.050;2022-08-19T02:00:46;100960.06;;;21.10;89.35
23574;BME280;11965;53.640;10.050;2022-08-19T02:03:12;100962.03;;;21.09;89.57
23574;BME280;11965;53.640;10.050;2022-08-19T02:05:38;100967.34;;;21.06;90.13
23574;BME280;11965;53.640;10.050;2022-08-19T02:08:04;100962.44;;;21.18;89.98
23574;BME280;11965;53.640;10.050;2022-08-19T02:10:29;100966.34;;;21.17;90.47
23574;BME280;11965;53.640;10.050;2022-08-19T02:12:55;100961.59;;;21.17;90.43
23574;BME280;11965;53.640;10.050;2022-08-19T02:15:20;100967.28;;;21.23;89.74
23574;BME280;11965;53.640;10.050;2022-08-19T02:17:47;100965.25;;;21.18;90.32
23574;BME280;11965;53.640;10.050;2022-08-19T02:20:13;100956.72;;;21.13;91.54
23574;BME280;11965;53.640;10.050;2022-08-19T02:22:40;100960.13;;;21.15;91.40
23574;BME280;11965;53.640;10.050;2022-08-19T02:25:09;100941.25;;;21.15;89.92
23574;BME280;11965;53.640;10.050;2022-08-19T02:27:35;100944.31;;;21.14;90.57
23574;BME280;11965;53.640;10.050;2022-08-19T02:30:01;100941.44;;;21.09;91.69
23574;BME280;11965;53.640;10.050;2022-08-19T02:32:26;100932.34;;;21.02;92.20
23574;BME280;11965;53.640;10.050;2022-08-19T02:34:52;100938.38;;;20.88;92.50
23574;BME280;11965;53.640;10.050;2022-08-19T02:37:18;100933.78;;;20.82;93.51
23574;BME280;11965;53.640;10.050;2022-08-19T02:40:02;100950.50;;;20.89;93.08
23574;BME280;11965;53.640;10.050;2022-08-19T02:42:28;100954.69;;;20.86;93.59
23574;BME280;11965;53.640;10.050;2022-08-19T02:44:55;100958.88;;;20.84;93.16
23574;BME280;11965;53.640;10.050;2022-08-19T02:47:20;100956.19;;;20.94;92.50
23574;BME280;11965;53.640;10.050;2022-08-19T02:49:46;100962.44;;;20.96;92.47
23574;BME280;11965;53.640;10.050;2022-08-19T02:52:14;100963.81;;;20.93;92.36
23574;BME280;11965;53.640;10.050;2022-08-19T02:54:40;100953.69;;;20.76;94.49
23574;BME280;11965;53.640;10.050;2022-08-19T02:57:05;100942.41;;;20.76;94.19
23574;BME280;11965;53.640;10.050;2022-08-19T02:59:32;100940.81;;;20.80;93.96
23574;BME280;11965;53.640;10.050;2022-08-19T03:01:57;100945.97;;;20.88;93.81
23574;BME280;11965;53.640;10.050;2022-08-19T03:04:23;100950.94;;;20.81;93.24
23574;BME280;11965;53.640;10.050;2022-08-19T03:06:49;100952.72;;;20.87;92.08
23574;BME280;11965;53.640;10.050;2022-08-19T03:09:16;100963.13;;;20.86;92.75
23574;BME280;11965;53.640;10.050;2022-08-19T03:11:42;100949.44;;;20.95;92.70
23574;BME280;11965;53.640;10.050;2022-08-19T03:14:08;100958.56;;;21.02;90.97
23574;BME280;11965;53.640;10.050;2022-08-19T03:16:44;100952.84;;;20.97;90.63
23574;BME280;11965;53.640;10.050;2022-08-19T03:19:10;100945.00;;;20.99;91.12
23574;BME280;11965;53.640;10.050;2022-08-19T03:21:35;100948.41;;;21.01;91.02
23574;BME280;11965;53.640;10.050;2022-08-19T03:24:07;100944.25;;;20.87;92.15
23574;BME280;11965;53.640;10.050;2022-08-19T03:26:33;100953.75;;;20.81;92.99
23574;BME280;11965;53.640;10.050;2022-08-19T03:29:03;100955.81;;;20.85;91.87
23574;BME280;11965;53.640;10.050;2022-08-19T03:31:29;100946.91;;;20.93;91.71
23574;BME280;11965;53.640;10.050;2022-08-19T03:33:56;100956.13;;;20.89;92.39
23574;BME280;11965;53.640;10.050;2022-08-19T03:36:24;100950.19;;;20.85;92.65
23574;BME280;11965;53.640;10.050;2022-08-19T03:38:54;100956.81;;;20.79;93.09
23574;BME280;11965;53.640;10.050;2022-08-19T03:41:22;100954.97;;;20.85;91.94
23574;BME280;11965;53.640;10.050;2022-08-19T03:43:48;100959.41;;;20.81;92.85
23574;BME280;11965;53.640;10.050;2022-08-19T03:46:17;100957.72;;;20.80;92.69
23574;BME280;11965;53.640;10.050;2022-08-19T03:48:45;100973.81;;;20.84;92.19
23574;BME280;11965;53.640;10.050;2022-08-19T03:51:32;100970.47;;;20.87;92.00
23574;BME280;11965;53.640;10.050;2022-08-19T03:54:00;100969.63;;;20.87;92.33
23574;BME280;11965;53.640;10.050;2022-08-19T03:56:27;100975.59;;;20.90;92.28
23574;BME280;11965;53.640;10.050;2022-08-19T03:58:53;100982.94;;;20.91;91.32
23574;BME280;11965;53.640;10.050;2022-08-19T04:01:21;100991.06;;;20.88;91.86
23574;BME280;11965;53.640;10.050;2022-08-19T04:03:47;100994.88;;;20.99;90.73
23574;BME280;11965;53.640;10.050;2022-08-19T04:06:34;101007.16;;;20.92;91.20
23574;BME280;11965;53.640;10.050;2022-08-19T04:09:01;100997.88;;;20.92;91.16
23574;BME280;11965;53.640;10.050;2022-08-19T04:11:34;101002.41;;;20.93;91.67
23574;BME280;11965;53.640;10.050;2022-08-19T04:14:00;101008.03;;;20.93;91.62
23574;BME280;11965;53.640;10.050;2022-08-19T04:16:27;101006.53;;;20.85;92.05
23574;BME280;11965;53.640;10.050;2022-08-19T04:18:59;101000.06;;;20.90;92.69
23574;BME280;11965;53.640;10.050;2022-08-19T04:21:27;101000.28;;;20.83;92.70
23574;BME280;11965;53.640;10.050;2022-08-19T04:23:53;101013.06;;;20.91;92.39
23574;BME280;11965;53.640;10.050;2022-08-19T04:26:31;101016.94;;;20.85;92.38
23574;BME280;11965;53.640;10.050;2022-08-19T04:29:01;101020.94;;;20.89;93.32
23574;BME280;11965;53.640;10.050;2022-08-19T04:31:30;101022.13;;;20.93;92.02
23574;BME280;11965;53.640;10.050;2022-08-19T04:33:57;101018.78;;;20.96;91.30
23574;BME280;11965;53.640;10.050;2022-08-19T04:36:26;101013.84;;;20.86;92.04
23574;BME280;11965;53.640;10.050;2022-08-19T04:38:56;101024.34;;;20.91;92.40
23574;BME280;11965;53.640;10.050;2022-08-19T04:41:22;101022.06;;;20.88;92.26
23574;BME280;11965;53.640;10.050;2022-08-19T04:44:07;101023.75;;;20.89;92.54
23574;BME280;11965;53.640;10.050;2022-08-19T04:46:33;101016.66;;;20.86;93.14
23574;BME280;11965;53.640;10.050;2022-08-19T04:48:59;101014.38;;;20.83;92.48
23574;BME280;11965;53.640;10.050;2022-08-19T04:51:25;101020.09;;;20.88;91.87
23574;BME280;11965;53.640;10.050;2022-08-19T04:53:51;101023.59;;;20.79;92.45
23574;BME280;11965;53.640;10.050;2022-08-19T04:56:19;101026.59;;;20.72;93.97
23574;BME280;11965;53.640;10.050;2022-08-19T04:58:48;101026.16;;;20.80;93.70
23574;BME280;11965;53.640;10.050;2022-08-19T05:01:22;101029.63;;;20.87;92.96
23574;BME280;11965;53.640;10.050;2022-08-19T05:03:48;101027.94;;;20.86;93.30
23574;BME280;11965;53.640;10.050;2022-08-19T05:06:17;101029.22;;;20.95;92.70
23574;BME280;11965;53.640;10.050;2022-08-19T05:08:44;101026.13;;;20.97;92.97
23574;BME280;11965;53.640;10.050;2022-08-19T05:11:13;101028.84;;;20.92;92.24
23574;BME280;11965;53.640;10.050;2022-08-19T05:13:39;101034.41;;;20.87;92.62
23574;BME280;11965;53.640;10.050;2022-08-19T05:16:04;101030.94;;;20.80;93.51
23574;BME280;11965;53.640;10.050;2022-08-19T05:18:30;101042.28;;;20.85;93.25
23574;BME280;11965;53.640;10.050;2022-08-19T05:21:16;101044.50;;;20.83;94.03
23574;BME280;11965;53.640;10.050;2022-08-19T05:24:01;101045.69;;;20.87;92.89
23574;BME280;11965;53.640;10.050;2022-08-19T05:26:27;101042.97;;;20.75;94.53
23574;BME280;11965;53.640;10.050;2022-08-19T05:28:53;101042.78;;;20.82;94.45
23574;BME280;11965;53.640;10.050;2022-08-19T05:31:19;101051.41;;;20.92;93.62
23574;BME280;11965;53.640;10.050;2022-08-19T05:33:45;101045.44;;;20.88;94.01
23574;BME280;11965;53.640;10.050;2022-08-19T05:36:10;101047.72;;;20.91;93.72
23574;BME280;11965;53.640;10.050;2022-08-19T05:38:36;101037.94;;;20.77;94.04
23574;BME280;11965;53.640;10.050;2022-08-19T05:41:12;101047.50;;;20.76;94.49
23574;BME280;11965;53.640;10.050;2022-08-19T05:43:38;101047.94;;;20.68;94.69
23574;BME280;11965;53.640;10.050;2022-08-19T05:46:05;101045.03;;;20.63;95.65
23574;BME280;11965;53.640;10.050;2022-08-19T05:48:32;101038.72;;;20.72;94.93
23574;BME280;11965;53.640;10.050;2022-08-19T05:50:57;101030.19;;;20.67;94.82
23574;BME280;11965;53.640;10.050;2022-08-19T05:53:24;101035.56;;;20.69;94.72
23574;BME280;11965;53.640;10.050;2022-08-19T05:55:50;101031.44;;;20.77;93.26
23574;BME280;11965;53.640;10.050;2022-08-19T05:58:15;101036.75;;;20.73;93.83
23574;BME280;11965;53.640;10.050;2022-08-19T06:00:43;101036.81;;;20.78;94.16
23574;BME280;11965;53.640;10.050;2022-08-19T06:03:09;101028.69;;;20.82;93.47
23574;BME280;11965;53.640;10.050;2022-08-19T06:05:34;101037.66;;;20.95;92.41
23574;BME280;11965;53.640;10.050;2022-08-19T06:07:59;101043.88;;;20.98;91.86
23574;BME280;11965;53.640;10.050;2022-08-19T06:10:25;101034.56;;;20.97;91.33
23574;BME280;11965;53.640;10.050;2022-08-19T06:12:51;101031.50;;;20.99;92.35
23574;BME280;11965;53.640;10.050;2022-08-19T06:15:17;101032.19;;;20.89;93.04
23574;BME280;11965;53.640;10.050;2022-08-19T06:17:43;101033.25;;;20.83;93.27
23574;BME280;11965;53.640;10.050;2022-08-19T06:20:12;101036.50;;;20.74;93.83
23574;BME280;11965;53.640;10.050;2022-08-19T06:22:43;101034.00;;;20.78;93.95
23574;BME280;11965;53.640;10.050;2022-08-19T06:25:09;101036.06;;;20.83;93.20
23574;BME280;11965;53.640;10.050;2022-08-19T06:27:35;101043.78;;;20.92;92.79
23574;BME280;11965;53.640;10.050;2022-08-19T06:30:03;101053.59;;;21.07;91.65
23574;BME280;11965;53.640;10.050;2022-08-19T06:32:29;101046.59;;;21.09;90.77
23574;BME280;11965;53.640;10.050;2022-08-19T06:34:55;101044.34;;;21.11;90.50
23574;BME280;11965;53.640;10.050;2022-08-19T06:37:20;101040.06;;;21.09;91.08
23574;BME280;11965;53.640;10.050;2022-08-19T06:39:47;101039.22;;;21.25;89.37
23574;BME280;11965;53.640;10.050;2022-08-19T06:42:13;101043.97;;;21.25;89.19
23574;BME280;11965;53.640;10.050;2022-08-19T06:44:42;101026.03;;;21.31;88.38
23574;BME280;11965;53.640;10.050;2022-08-19T06:47:11;101032.09;;;21.39;88.60
23574;BME280;11965;53.640;10.050;2022-08-19T06:49:37;101030.13;;;21.40;87.58
23574;BME280;11965;53.640;10.050;2022-08-19T06:52:04;101025.38;;;21.46;87.77
23574;BME280;11965;53.640;10.050;2022-08-19T06:54:30;101024.59;;;21.50;86.83
23574;BME280;11965;53.640;10.050;2022-08-19T06:57:00;101025.31;;;21.40;86.43
23574;BME280;11965;53.640;10.050;2022-08-19T06:59:30;101035.81;;;21.45;87.94
23574;BME280;11965;53.640;10.050;2022-08-19T07:02:00;101031.06;;;21.29;87.90
23574;BME280;11965;53.640;10.050;2022-08-19T07:04:29;101041.03;;;21.36;87.74
23574;BME280;11965;53.640;10.050;2022-08-19T07:07:08;101049.31;;;21.43;88.32
23574;BME280;11965;53.640;10.050;2022-08-19T07:09:36;101048.47;;;21.43;86.46
23574;BME280;11965;53.640;10.050;2022-08-19T07:12:04;101042.41;;;21.34;88.54
23574;BME280;11965;53.640;10.050;2022-08-19T07:14:30;101039.84;;;21.32;87.36
23574;BME280;11965;53.640;10.050;2022-08-19T07:16:56;101037.16;;;21.21;88.82
23574;BME280;11965;53.640;10.050;2022-08-19T07:19:24;101041.03;;;21.14;89.51
23574;BME280;11965;53.640;10.050;2022-08-19T07:21:51;101041.59;;;21.16;89.14
23574;BME280;11965;53.640;10.050;2022-08-19T07:24:19;101042.13;;;21.13;89.45
23574;BME280;11965;53.640;10.050;2022-08-19T07:26:45;101039.38;;;21.18;89.93
23574;BME280;11965;53.640;10.050;2022-08-19T07:29:11;101037.81;;;21.28;89.24
23574;BME280;11965;53.640;10.050;2022-08-19T07:31:37;101048.38;;;21.15;89.43
23574;BME280;11965;53.640;10.050;2022-08-19T07:34:10;101052.31;;;21.14;90.21
23574;BME280;11965;53.640;10.050;2022-08-19T07:36:38;101050.97;;;21.22;90.07
23574;BME280;11965;53.640;10.050;2022-08-19T07:39:24;101057.97;;;21.36;88.61
23574;BME280;11965;53.640;10.050;2022-08-19T07:41:50;101064.63;;;21.47;88.02
23574;BME280;11965;53.640;10.050;2022-08-19T07:44:17;101069.41;;;21.47;88.83
23574;BME280;11965;53.640;10.050;2022-08-19T07:46:46;101068.81;;;21.67;87.39
23574;BME280;11965;53.640;10.050;2022-08-19T07:49:13;101073.84;;;21.65;86.92
23574;BME280;11965;53.640;10.050;2022-08-19T07:51:50;101074.44;;;21.67;87.17
23574;BME280;11965;53.640;10.050;2022-08-19T07:54:17;101061.97;;;21.62;86.10
23574;BME280;11965;53.640;10.050;2022-08-19T07:56:42;101072.22;;;21.69;86.31
23574;BME280;11965;53.640;10.050;2022-08-19T07:59:08;101080.94;;;21.67;88.42
23574;BME280;11965;53.640;10.050;2022-08-19T08:01:35;101083.56;;;21.74;86.88
23574;BME280;11965;53.640;10.050;2022-08-19T08:04:01;101088.88;;;21.70;85.13
23574;BME280;11965;53.640;10.050;2022-08-19T08:06:45;101082.97;;;21.72;87.76
23574;BME280;11965;53.640;10.050;2022-08-19T08:09:39;101090.97;;;21.80;86.09
23574;BME280;11965;53.640;10.050;2022-08-19T08:12:18;101101.78;;;21.88;85.32
23574;BME280;11965;53.640;10.050;2022-08-19T08:14:49;101103.94;;;21.81;86.24
23574;BME280;11965;53.640;10.050;2022-08-19T08:17:17;101102.25;;;21.80;86.33
23574;BME280;11965;53.640;10.050;2022-08-19T08:19:44;101104.09;;;21.69;86.91
23574;BME280;11965;53.640;10.050;2022-08-19T08:22:11;101102.97;;;21.70;86.46
23574;BME280;11965;53.640;10.050;2022-08-19T08:25:00;101100.44;;;21.69;87.53
23574;BME280;11965;53.640;10.050;2022-08-19T08:27:26;101097.19;;;21.60;86.55
23574;BME280;11965;53.640;10.050;2022-08-19T08:29:54;101107.75;;;21.70;86.59
23574;BME280;11965;53.640;10.050;2022-08-19T08:32:20;101105.59;;;21.77;87.26
23574;BME280;11965;53.640;10.050;2022-08-19T08:34:45;101111.25;;;21.77;86.22
23574;BME280;11965;53.640;10.050;2022-08-19T08:37:10;101117.28;;;21.64;87.06
23574;BME280;11965;53.640;10.050;2022-08-19T08:39:36;101111.03;;;21.61;87.19
23574;BME280;11965;53.640;10.050;2022-08-19T08:42:29;101109.22;;;21.72;88.29
23574;BME280;11965;53.640;10.050;2022-08-19T08:45:01;101118.44;;;21.68;87.45
23574;BME280;11965;53.640;10.050;2022-08-19T08:47:35;101109.59;;;21.81;88.06
23574;BME280;11965;53.640;10.050;2022-08-19T08:50:29;101115.16;;;21.76;87.98
23574;BME280;11965;53.640;10.050;2022-08-19T08:52:58;101117.59;;;21.67;88.04
23574;BME280;11965;53.640;10.050;2022-08-19T08:55:28;101116.53;;;21.73;86.90
23574;BME280;11965;53.640;10.050;2022-08-19T08:58:12;101123.91;;;21.74;89.07
23574;BME280;11965;53.640;10.050;2022-08-19T09:00:46;101120.63;;;21.82;87.65
23574;BME280;11965;53.640;10.050;2022-08-19T09:03:22;101114.66;;;22.01;87.30
23574;BME280;11965;53.640;10.050;2022-08-19T09:11:09;101121.44;;;22.05;86.60
23574;BME280;11965;53.640;10.050;2022-08-19T09:16:20;101115.50;;;22.01;87.18
23574;BME280;11965;53.640;10.050;2022-08-19T09:18:54;101117.19;;;22.02;85.84
23574;BME280;11965;53.640;10.050;2022-08-19T09:21:21;101117.25;;;22.08;85.98
23574;BME280;11965;53.640;10.050;2022-08-19T09:23:48;101115.78;;;22.27;85.38
23574;BME280;11965;53.640;10.050;2022-08-19T09:26:16;101120.44;;;22.38;84.10
23574;BME280;11965;53.640;10.050;2022-08-19T09:28:44;101120.38;;;22.33;84.40
23574;BME280;11965;53.640;10.050;2022-08-19T09:31:17;101126.97;;;22.17;84.23
23574;BME280;11965;53.640;10.050;2022-08-19T09:33:43;101119.69;;;22.21;85.23
23574;BME280;11965;53.640;10.050;2022-08-19T09:36:12;101123.25;;;22.16;86.46
23574;BME280;11965;53.640;10.050;2022-08-19T09:38:39;101111.00;;;22.27;85.08
23574;BME280;11965;53.640;10.050;2022-08-19T09:41:18;101115.75;;;22.22;86.01
23574;BME280;11965;53.640;10.050;2022-08-19T09:43:45;101115.53;;;22.28;85.80
23574;BME280;11965;53.640;10.050;2022-08-19T09:46:12;101113.91;;;22.33;85.81
23574;BME280;11965;53.640;10.050;2022-08-19T09:48:41;101110.19;;;22.32;85.05
23574;BME280;11965;53.640;10.050;2022-08-19T09:51:10;101117.63;;;22.38;84.37
23574;BME280;11965;53.640;10.050;2022-08-19T09:53:37;101120.59;;;22.26;83.97
23574;BME280;11965;53.640;10.050;2022-08-19T09:56:04;101116.13;;;22.31;85.00
23574;BME280;11965;53.640;10.050;2022-08-19T09:58:31;101114.56;;;22.45;84.17
23574;BME280;11965;53.640;10.050;2022-08-19T10:00:57;101113.41;;;22.41;84.81
23574;BME280;11965;53.640;10.050;2022-08-19T10:03:24;101110.41;;;22.53;84.30
23574;BME280;11965;53.640;10.050;2022-08-19T10:05:50;101109.88;;;22.56;83.21
23574;BME280;11965;53.640;10.050;2022-08-19T10:08:18;101109.97;;;22.66;83.42
23574;BME280;11965;53.640;10.050;2022-08-19T10:10:44;101107.38;;;22.64;82.31
23574;BME280;11965;53.640;10.050;2022-08-19T10:13:10;101115.66;;;22.71;81.64
23574;BME280;11965;53.640;10.050;2022-08-19T10:15:36;101105.75;;;22.68;83.27
23574;BME280;11965;53.640;10.050;2022-08-19T10:18:05;101107.97;;;22.66;82.24
23574;BME280;11965;53.640;10.050;2022-08-19T10:20:30;101121.91;;;22.73;81.45
23574;BME280;11965;53.640;10.050;2022-08-19T10:22:56;101113.38;;;22.68;81.05
23574;BME280;11965;53.640;10.050;2022-08-19T10:25:21;101123.84;;;22.72;81.70
23574;BME280;11965;53.640;10.050;2022-08-19T10:27:47;101123.25;;;22.65;81.61
23574;BME280;11965;53.640;10.050;2022-08-19T10:30:12;101121.44;;;22.54;81.29
23574;BME280;11965;53.640;10.050;2022-08-19T10:32:39;101110.59;;;22.46;81.92
23574;BME280;11965;53.640;10.050;2022-08-19T10:35:05;101118.13;;;22.62;82.14
23574;BME280;11965;53.640;10.050;2022-08-19T10:37:35;101114.13;;;22.58;81.68
23574;BME280;11965;53.640;10.050;2022-08-19T10:40:04;101118.94;;;22.58;83.22
23574;BME280;11965;53.640;10.050;2022-08-19T10:42:31;101114.31;;;22.79;81.39
23574;BME280;11965;53.640;10.050;2022-08-19T10:44:56;101117.25;;;22.94;79.21
23574;BME280;11965;53.640;10.050;2022-08-19T10:47:22;101109.03;;;22.92;79.21
23574;BME280;11965;53.640;10.050;2022-08-19T10:49:49;101112.25;;;23.01;78.63
23574;BME280;11965;53.640;10.050;2022-08-19T10:52:33;101111.53;;;22.89;79.17
23574;BME280;11965;53.640;10.050;2022-08-19T10:55:03;101109.88;;;22.93;79.82
23574;BME280;11965;53.640;10.050;2022-08-19T10:57:48;101104.75;;;22.85;80.62
23574;BME280;11965;53.640;10.050;2022-08-19T11:00:14;101108.13;;;22.82;80.66
23574;BME280;11965;53.640;10.050;2022-08-19T11:02:39;101104.19;;;22.88;80.94
23574;BME280;11965;53.640;10.050;2022-08-19T11:05:06;101108.06;;;23.09;79.40
23574;BME280;11965;53.640;10.050;2022-08-19T11:07:32;101101.78;;;23.02;80.76
23574;BME280;11965;53.640;10.050;2022-08-19T11:09:58;101104.03;;;23.00;79.81
23574;BME280;11965;53.640;10.050;2022-08-19T11:12:23;101106.22;;;22.92;80.91
23574;BME280;11965;53.640;10.050;2022-08-19T11:14:49;101096.97;;;23.02;79.44
23574;BME280;11965;53.640;10.050;2022-08-19T11:17:15;101107.06;;;22.93;80.40
23574;BME280;11965;53.640;10.050;2022-08-19T11:19:41;101111.75;;;22.77;81.05
23574;BME280;11965;53.640;10.050;2022-08-19T11:22:08;101117.34;;;22.72;81.45
23574;BME280;11965;53.640;10.050;2022-08-19T11:24:35;101108.72;;;22.57;81.68
23574;BME280;11965;53.640;10.050;2022-08-19T11:27:06;101111.84;;;22.87;79.66
23574;BME280;11965;53.640;10.050;2022-08-19T11:29:32;101112.97;;;22.91;80.54
23574;BME280;11965;53.640;10.050;2022-08-19T11:31:59;101113.22;;;23.17;79.05
23574;BME280;11965;53.640;10.050;2022-08-19T11:34:27;101112.66;;;23.20;79.37
23574;BME280;11965;53.640;10.050;2022-08-19T11:36:54;101113.75;;;23.14;78.36
23574;BME280;11965;53.640;10.050;2022-08-19T11:39:24;101119.53;;;23.29;77.46
23574;BME280;11965;53.640;10.050;2022-08-19T11:41:50;101109.97;;;23.41;76.38
23574;BME280;11965;53.640;10.050;2022-08-19T11:44:16;101098.19;;;23.69;75.49
23574;BME280;11965;53.640;10.050;2022-08-19T11:46:42;101099.16;;;23.85;75.83
23574;BME280;11965;53.640;10.050;2022-08-19T11:49:13;101103.97;;;23.85;75.69
23574;BME280;11965;53.640;10.050;2022-08-19T11:51:39;101090.13;;;23.93;74.79
23574;BME280;11965;53.640;10.050;2022-08-19T11:54:07;101087.63;;;24.02;75.31
23574;BME280;11965;53.640;10.050;2022-08-19T11:56:32;101084.19;;;24.00;74.83
23574;BME280;11965;53.640;10.050;2022-08-19T11:58:58;101083.13;;;24.21;71.12
23574;BME280;11965;53.640;10.050;2022-08-19T12:01:25;101094.75;;;24.35;72.87
23574;BME280;11965;53.640;10.050;2022-08-19T12:03:52;101092.53;;;24.48;71.99
23574;BME280;11965;53.640;10.050;2022-08-19T12:06:21;101097.34;;;24.57;71.04
23574;BME280;11965;53.640;10.050;2022-08-19T12:08:51;101090.25;;;24.50;70.68
23574;BME280;11965;53.640;10.050;2022-08-19T12:11:17;101094.16;;;24.33;71.21
23574;BME280;11965;53.640;10.050;2022-08-19T12:13:43;101094.50;;;24.52;71.28
23574;BME280;11965;53.640;10.050;2022-08-19T12:16:22;101097.84;;;24.29;71.69
23574;BME280;11965;53.640;10.050;2022-08-19T12:18:49;101100.38;;;24.20;71.08
23574;BME280;11965;53.640;10.050;2022-08-19T12:21:19;101103.81;;;24.27;72.35
23574;BME280;11965;53.640;10.050;2022-08-19T12:23:46;101105.22;;;24.30;72.51
23574;BME280;11965;53.640;10.050;2022-08-19T12:26:12;101096.44;;;24.21;71.14
23574;BME280;11965;53.640;10.050;2022-08-19T12:28:38;101090.47;;;24.17;72.16
23574;BME280;11965;53.640;10.050;2022-08-19T12:31:04;101094.72;;;24.25;71.27
23574;BME280;11965;53.640;10.050;2022-08-19T12:33:30;101093.88;;;24.19;71.95
23574;BME280;11965;53.640;10.050;2022-08-19T12:36:00;101097.25;;;24.16;71.08
23574;BME280;11965;53.640;10.050;2022-08-19T12:38:26;101089.63;;;24.17;72.33
23574;BME280;11965;53.640;10.050;2022-08-19T12:40:52;101088.47;;;24.23;72.12
23574;BME280;11965;53.640;10.050;2022-08-19T12:43:17;101084.84;;;24.38;72.24
23574;BME280;11965;53.640;10.050;2022-08-19T12:45:44;101089.41;;;24.54;70.02
23574;BME280;11965;53.640;10.050;2022-08-19T12:48:11;101080.63;;;24.45;71.35
23574;BME280;11965;53.640;10.050;2022-08-19T12:50:40;101084.88;;;24.68;69.90
23574;BME280;11965;53.640;10.050;2022-08-19T12:53:05;101078.38;;;24.83;69.93